Time;durP1;ratioP1;P1;durP2;ratioP2;P2;SDS_P1;SDS_P2;PMS_P1;PMS_P2;Temp;Humidity;BMP_temperature;BMP_pressure;BME280_temperature;BME280_humidity;BME280_pressure;Samples;Min_cycle;Max_cycle;Signal;HPM_P1;HPM_P2
2022/07/20 00:00:50;;;;;;;29.35;13.00;;;20.20;99.90;;;;;;4952873;29;20636;-61
2022/07/20 00:03:15;;;;;;;28.70;13.18;;;20.10;99.90;;;;;;4954731;28;20204;-61
2022/07/20 00:05:43;;;;;;;25.67;11.85;;;20.10;99.90;;;;;;4956594;29;20188;-60
2022/07/20 00:08:09;;;;;;;25.95;12.00;;;20.20;99.90;;;;;;4956578;29;20208;-61
2022/07/20 00:13:21;;;;;;;23.42;11.60;;;20.20;99.90;;;;;;4956797;29;20267;-61
2022/07/20 00:15:48;;;;;;;25.52;11.23;;;20.20;99.90;;;;;;4956607;28;20552;-60
2022/07/20 00:18:14;;;;;;;24.08;11.88;;;20.20;99.90;;;;;;4955037;29;20234;-60
2022/07/20 00:20:40;;;;;;;20.88;10.73;;;20.20;99.90;;;;;;4955222;29;20192;-61
2022/07/20 00:23:06;;;;;;;21.08;10.60;;;20.10;99.90;;;;;;4956292;29;20640;-60
2022/07/20 00:25:32;;;;;;;23.88;10.60;;;20.10;99.90;;;;;;4956235;29;20167;-60
2022/07/20 00:27:58;;;;;;;21.83;10.10;;;20.10;99.90;;;;;;4956204;29;20208;-60
2022/07/20 00:30:24;;;;;;;19.85;9.77;;;20.10;99.90;;;;;;4956265;29;20255;-60
2022/07/20 00:32:50;;;;;;;22.80;9.90;;;20.00;99.90;;;;;;4956060;29;20180;-61
2022/07/20 00:35:17;;;;;;;18.83;9.50;;;20.00;99.90;;;;;;4956121;29;20165;-60
2022/07/20 00:37:44;;;;;;;18.48;9.90;;;20.00;99.90;;;;;;4956195;29;20179;-58
2022/07/20 00:40:12;;;;;;;16.52;9.15;;;20.00;99.90;;;;;;4956077;29;20267;-60
2022/07/20 00:42:38;;;;;;;19.67;9.50;;;19.90;99.90;;;;;;4956115;28;20640;-60
2022/07/20 00:45:06;;;;;;;17.52;9.45;;;19.80;99.90;;;;;;4955945;29;20268;-59
2022/07/20 00:47:32;;;;;;;17.92;9.65;;;19.80;99.90;;;;;;4955830;29;20216;-60
2022/07/20 00:49:58;;;;;;;19.50;9.95;;;19.80;99.90;;;;;;4955854;29;20212;-61
2022/07/20 00:52:25;;;;;;;20.70;9.07;;;19.90;99.90;;;;;;4955958;28;20644;-60
2022/07/20 00:54:53;;;;;;;19.80;10.10;;;19.80;99.90;;;;;;4955859;29;20210;-61
2022/07/20 00:57:20;;;;;;;20.02;9.57;;;19.90;99.90;;;;;;4955760;29;20231;-60
2022/07/20 00:59:46;;;;;;;21.63;9.73;;;19.80;99.90;;;;;;4955628;29;20172;-60
2022/07/20 01:02:13;;;;;;;22.05;9.13;;;19.80;99.90;;;;;;4955576;29;20176;-60
2022/07/20 01:04:39;;;;;;;15.10;9.02;;;19.80;99.90;;;;;;4955608;29;20275;-60
2022/07/20 01:07:05;;;;;;;19.38;8.25;;;19.80;99.90;;;;;;4955451;29;20175;-60
2022/07/20 01:09:31;;;;;;;18.23;8.43;;;20.10;99.90;;;;;;4955560;29;20173;-61
2022/07/20 01:11:57;;;;;;;19.67;8.75;;;19.90;99.90;;;;;;4955511;28;20207;-60
2022/07/20 01:14:23;;;;;;;18.88;8.95;;;20.00;99.90;;;;;;4954697;28;20520;-61
2022/07/20 01:16:48;;;;;;;14.07;8.18;;;20.00;99.90;;;;;;4955418;29;20634;-60
2022/07/20 01:19:14;;;;;;;19.20;8.82;;;20.00;99.90;;;;;;4955277;29;20720;-60
2022/07/20 01:21:43;;;;;;;20.73;8.27;;;20.00;99.90;;;;;;4955236;29;20180;-60
2022/07/20 01:24:11;;;;;;;13.88;7.80;;;20.00;99.90;;;;;;4955355;29;20184;-60
2022/07/20 01:26:41;;;;;;;20.10;8.63;;;20.00;99.90;;;;;;4955313;29;20208;-60
2022/07/20 01:29:08;;;;;;;18.08;8.52;;;19.90;99.90;;;;;;4955103;29;20209;-61
2022/07/20 01:31:34;;;;;;;16.63;8.25;;;19.90;99.90;;;;;;4955354;29;20173;-60
2022/07/20 01:34:00;;;;;;;16.55;8.50;;;19.90;99.90;;;;;;4955075;28;20176;-59
2022/07/20 01:36:26;;;;;;;16.30;8.15;;;19.90;99.90;;;;;;4955061;29;20165;-60
2022/07/20 01:38:52;;;;;;;20.55;8.43;;;19.90;99.90;;;;;;4954940;29;20582;-60
2022/07/20 01:41:18;;;;;;;13.45;7.57;;;19.70;99.90;;;;;;4954969;29;20249;-60
2022/07/20 01:43:44;;;;;;;15.75;8.07;;;19.80;99.90;;;;;;4954887;29;20231;-60
2022/07/20 01:46:10;;;;;;;18.23;7.88;;;19.80;99.90;;;;;;4954910;29;20279;-59
2022/07/20 01:48:36;;;;;;;16.05;8.18;;;19.80;99.90;;;;;;4954844;29;20299;-61
2022/07/20 01:51:02;;;;;;;17.75;7.32;;;19.70;99.90;;;;;;4954842;29;20201;-60
2022/07/20 01:53:28;;;;;;;25.00;7.95;;;19.80;99.90;;;;;;4954814;29;20227;-61
2022/07/20 01:55:54;;;;;;;22.52;7.85;;;19.70;99.90;;;;;;4955126;29;20181;-60
2022/07/20 01:58:21;;;;;;;17.77;7.13;;;19.70;99.90;;;;;;4954650;29;20250;-60
2022/07/20 02:00:47;;;;;;;20.08;7.43;;;19.70;99.90;;;;;;4954872;29;20173;-61
2022/07/20 02:03:13;;;;;;;16.52;7.05;;;19.70;99.90;;;;;;4954506;29;20176;-60
2022/07/20 02:05:39;;;;;;;11.68;6.63;;;19.70;99.90;;;;;;4954616;29;20176;-61
2022/07/20 02:08:05;;;;;;;15.65;7.30;;;19.70;99.90;;;;;;4954334;29;20208;-61
2022/07/20 02:10:31;;;;;;;14.57;7.10;;;19.80;99.90;;;;;;4954448;29;20164;-60
2022/07/20 02:12:57;;;;;;;13.98;7.00;;;19.70;99.90;;;;;;4954363;29;20300;-61
2022/07/20 02:18:10;;;;;;;15.60;6.65;;;19.80;99.90;;;;;;4954543;29;20231;-61
2022/07/20 02:20:37;;;;;;;17.02;6.63;;;19.80;99.90;;;;;;4954290;29;20180;-61
2022/07/20 02:23:05;;;;;;;15.23;6.00;;;19.80;99.90;;;;;;4954189;28;20640;-60
2022/07/20 02:25:31;;;;;;;14.25;6.53;;;19.80;99.90;;;;;;4952533;28;20173;-60
2022/07/20 02:27:57;;;;;;;14.15;6.55;;;19.80;99.90;;;;;;4953555;28;20214;-61
2022/07/20 02:30:23;;;;;;;14.27;6.70;;;19.70;99.90;;;;;;4954110;29;20662;-60
2022/07/20 02:32:49;;;;;;;10.65;6.20;;;19.70;99.90;;;;;;4954065;29;20315;-60
2022/07/20 02:35:15;;;;;;;13.23;6.05;;;19.70;99.90;;;;;;4954082;29;20699;-60
2022/07/20 02:37:41;;;;;;;12.57;6.65;;;19.60;99.90;;;;;;4953817;29;20303;-59
2022/07/20 02:40:08;;;;;;;14.32;6.72;;;19.60;99.90;;;;;;4953940;29;20185;-60
2022/07/20 02:42:33;;;;;;;14.73;6.38;;;19.50;99.90;;;;;;4953530;28;20180;-59
2022/07/20 02:44:59;;;;;;;17.65;6.05;;;19.40;99.90;;;;;;4953827;29;20187;-60
2022/07/20 02:47:25;;;;;;;20.05;6.90;;;18.80;99.90;;;;;;4953633;29;20607;-60
2022/07/20 02:49:51;;;;;;;21.40;6.35;;;19.40;99.90;;;;;;4954056;29;20204;-60
2022/07/20 02:52:17;;;;;;;14.45;7.00;;;19.30;99.90;;;;;;4953586;29;20280;-60
2022/07/20 02:54:43;;;;;;;20.27;7.10;;;19.30;99.90;;;;;;4953808;29;21163;-60
2022/07/20 02:57:08;;;;;;;17.38;7.00;;;19.30;99.90;;;;;;4953683;29;20168;-60
2022/07/20 02:59:34;;;;;;;12.73;6.20;;;19.30;99.90;;;;;;4953700;29;20243;-60
2022/07/20 03:02:00;;;;;;;14.23;6.65;;;19.20;99.90;;;;;;4953435;29;20192;-60
2022/07/20 03:04:26;;;;;;;13.30;6.82;;;19.20;99.90;;;;;;4953612;29;20664;-60
2022/07/20 03:06:52;;;;;;;18.60;7.63;;;19.20;99.90;;;;;;4953455;29;20169;-60
2022/07/20 03:09:17;;;;;;;15.80;6.90;;;19.00;99.90;;;;;;4953387;29;20683;-60
2022/07/20 03:11:43;;;;;;;15.02;7.28;;;19.10;99.90;;;;;;4953330;29;20184;-60
2022/07/20 03:14:09;;;;;;;17.33;7.05;;;19.20;99.90;;;;;;4953246;29;20252;-61
2022/07/20 03:16:35;;;;;;;16.15;6.75;;;19.40;99.90;;;;;;4953263;29;20713;-60
2022/07/20 03:19:01;;;;;;;14.40;7.10;;;19.10;99.90;;;;;;4953373;29;20179;-60
2022/07/20 03:21:26;;;;;;;16.38;7.13;;;19.10;99.90;;;;;;4953194;29;20678;-61
2022/07/20 03:23:53;;;;;;;16.38;6.90;;;19.00;99.90;;;;;;4953276;28;20172;-61
2022/07/20 03:26:21;;;;;;;15.52;6.95;;;18.90;99.90;;;;;;4953169;29;20719;-60
2022/07/20 03:28:47;;;;;;;15.55;7.13;;;18.90;99.90;;;;;;4953287;28;20300;-61
2022/07/20 03:31:13;;;;;;;17.58;7.05;;;18.90;99.90;;;;;;4953168;29;20172;-61
2022/07/20 03:33:39;;;;;;;17.75;6.97;;;18.80;99.90;;;;;;4953136;29;20195;-61
2022/07/20 03:36:05;;;;;;;18.05;7.32;;;19.00;99.90;;;;;;4953148;29;20176;-61
2022/07/20 03:38:31;;;;;;;13.50;7.20;;;18.90;99.90;;;;;;4952976;28;20188;-61
2022/07/20 03:40:57;;;;;;;19.52;7.30;;;18.90;99.90;;;;;;4953235;29;20169;-61
2022/07/20 03:43:25;;;;;;;16.55;7.45;;;19.00;99.90;;;;;;4953138;29;20184;-61
2022/07/20 03:45:52;;;;;;;12.88;7.18;;;19.00;99.90;;;;;;4953135;29;20180;-61
2022/07/20 03:48:19;;;;;;;21.55;7.53;;;19.00;99.90;;;;;;4952866;29;20216;-60
2022/07/20 03:50:46;;;;;;;15.05;7.15;;;19.00;99.90;;;;;;4952919;29;20232;-61
2022/07/20 03:53:12;;;;;;;12.45;6.93;;;19.00;99.90;;;;;;4952909;28;20722;-61
2022/07/20 03:55:38;;;;;;;16.98;7.43;;;19.00;99.90;;;;;;4952925;29;20179;-61
2022/07/20 03:58:04;;;;;;;13.07;7.25;;;19.00;99.90;;;;;;4952885;29;20259;-61
2022/07/20 04:00:30;;;;;;;22.25;7.95;;;19.00;99.90;;;;;;4952872;29;20176;-60
2022/07/20 04:02:57;;;;;;;16.70;7.22;;;19.00;99.90;;;;;;4952744;29;20173;-61
2022/07/20 04:05:22;;;;;;;19.85;7.38;;;19.10;99.90;;;;;;4952725;29;20220;-60
2022/07/20 04:07:49;;;;;;;13.23;7.45;;;19.10;99.90;;;;;;4952716;28;20224;-61
2022/07/20 04:10:15;;;;;;;15.63;7.15;;;19.10;99.90;;;;;;4952947;29;20263;-61
2022/07/20 04:12:41;;;;;;;15.82;8.00;;;19.20;99.90;;;;;;4952773;29;20172;-60
2022/07/20 04:15:07;;;;;;;20.70;7.90;;;19.20;99.90;;;;;;4952692;29;20541;-61
2022/07/20 04:17:33;;;;;;;16.27;7.45;;;19.20;99.90;;;;;;4952471;29;20255;-60
2022/07/20 04:19:59;;;;;;;16.05;7.22;;;19.20;99.90;;;;;;4951484;29;20347;-60
2022/07/20 04:22:25;;;;;;;15.35;7.20;;;19.20;99.90;;;;;;4952649;28;20643;-61
2022/07/20 04:24:50;;;;;;;12.68;6.68;;;19.20;99.90;;;;;;4952606;29;20184;-61
2022/07/20 04:27:16;;;;;;;13.15;6.75;;;19.20;99.90;;;;;;4952411;29;20659;-61
2022/07/20 04:29:42;;;;;;;17.00;6.78;;;19.30;99.90;;;;;;4952655;29;20204;-60
2022/07/20 04:32:08;;;;;;;13.35;6.13;;;19.30;99.90;;;;;;4952554;29;20171;-61
2022/07/20 04:34:34;;;;;;;14.05;6.50;;;19.30;99.90;;;;;;4952439;29;20707;-61
2022/07/20 04:37:00;;;;;;;14.57;6.53;;;19.40;99.90;;;;;;4952457;29;20271;-61
2022/07/20 04:39:26;;;;;;;15.70;6.32;;;19.40;99.90;;;;;;4952558;28;20181;-60
2022/07/20 04:41:52;;;;;;;11.90;5.97;;;19.40;99.90;;;;;;4952515;29;20200;-60
2022/07/20 04:44:18;;;;;;;14.65;6.88;;;19.40;99.90;;;;;;4952472;29;20687;-60
2022/07/20 04:46:45;;;;;;;14.52;6.57;;;19.30;99.90;;;;;;4952370;29;20289;-60
2022/07/20 04:49:11;;;;;;;13.93;6.20;;;19.30;99.90;;;;;;4952553;28;20204;-60
2022/07/20 04:51:37;;;;;;;10.82;5.95;;;19.30;99.90;;;;;;4955852;29;20176;-61
2022/07/20 04:54:03;;;;;;;11.52;5.93;;;19.30;99.90;;;;;;4955820;28;20172;-61
2022/07/20 04:56:29;;;;;;;10.63;5.65;;;19.30;99.90;;;;;;4955851;29;20204;-61
2022/07/20 04:58:55;;;;;;;11.20;5.88;;;17.60;99.90;;;;;;4955729;29;20635;-60
2022/07/20 05:01:22;;;;;;;13.85;6.03;;;19.30;99.90;;;;;;4954487;29;20302;-59
2022/07/20 05:03:49;;;;;;;15.18;5.82;;;19.30;99.90;;;;;;4955544;29;20180;-61
2022/07/20 05:06:15;;;;;;;13.75;5.65;;;19.30;99.90;;;;;;4955573;29;20184;-61
2022/07/20 05:08:41;;;;;;;19.15;6.82;;;19.30;99.90;;;;;;4955485;29;20702;-61
2022/07/20 05:11:06;;;;;;;12.77;6.55;;;19.30;99.90;;;;;;4955512;28;20203;-60
2022/07/20 05:13:32;;;;;;;10.88;5.75;;;19.30;99.90;;;;;;4955541;28;20204;-61
2022/07/20 05:15:58;;;;;;;17.20;6.05;;;19.30;99.90;;;;;;4955138;29;20628;-60
2022/07/20 05:18:24;;;;;;;12.40;6.63;;;19.40;99.90;;;;;;4955370;29;20180;-60
2022/07/20 05:20:50;;;;;;;16.92;6.35;;;19.40;99.90;;;;;;4954042;29;20545;-61
2022/07/20 05:23:16;;;;;;;16.25;7.03;;;19.40;99.90;;;;;;4955295;29;20177;-60
2022/07/20 05:25:42;;;;;;;16.02;6.45;;;19.40;99.90;;;;;;4955206;29;20628;-60
2022/07/20 05:28:08;;;;;;;16.48;6.32;;;19.50;99.90;;;;;;4955056;29;20235;-61
2022/07/20 05:30:34;;;;;;;14.95;6.60;;;19.50;99.90;;;;;;4955222;29;20180;-60
2022/07/20 05:32:59;;;;;;;13.93;6.93;;;19.50;99.90;;;;;;4955181;29;20252;-60
2022/07/20 05:35:26;;;;;;;13.70;6.70;;;19.40;99.90;;;;;;4955192;29;20641;-60
2022/07/20 05:37:52;;;;;;;19.70;7.68;;;19.30;99.90;;;;;;4955100;29;20207;-61
2022/07/20 05:40:18;;;;;;;19.10;7.32;;;19.30;99.90;;;;;;4955038;29;20196;-61
2022/07/20 05:42:44;;;;;;;20.42;7.63;;;19.30;99.90;;;;;;4954916;29;20260;-61
2022/07/20 05:45:10;;;;;;;11.90;6.60;;;19.30;99.90;;;;;;4954818;28;20231;-61
2022/07/20 05:47:36;;;;;;;15.32;6.75;;;19.30;99.90;;;;;;4954729;29;20212;-61
2022/07/20 05:50:02;;;;;;;11.15;6.57;;;19.30;99.90;;;;;;4954855;29;20188;-60
2022/07/20 05:52:28;;;;;;;13.75;7.20;;;19.20;99.90;;;;;;4954889;28;20173;-60
2022/07/20 05:54:53;;;;;;;17.50;6.80;;;19.10;99.90;;;;;;4954684;29;21169;-60
2022/07/20 05:57:19;;;;;;;10.85;6.85;;;19.20;99.90;;;;;;4954638;28;20172;-61
2022/07/20 05:59:45;;;;;;;12.20;6.35;;;19.10;99.90;;;;;;4954609;29;20181;-60
2022/07/20 06:02:11;;;;;;;17.48;7.13;;;19.10;99.90;;;;;;4954409;28;20700;-61
2022/07/20 06:04:37;;;;;;;16.45;6.88;;;19.20;99.90;;;;;;4954552;29;20172;-61
2022/07/20 06:07:03;;;;;;;13.02;7.15;;;19.20;99.90;;;;;;4954457;29;20173;-61
2022/07/20 06:09:29;;;;;;;13.32;6.60;;;19.20;99.90;;;;;;4954429;29;20235;-61
2022/07/20 06:11:55;;;;;;;15.85;7.10;;;19.30;99.90;;;;;;4954427;28;20177;-61
2022/07/20 06:14:21;;;;;;;15.43;7.53;;;19.30;99.90;;;;;;4954348;28;20275;-61
2022/07/20 06:16:47;;;;;;;13.48;6.63;;;19.20;99.90;;;;;;4954410;29;20220;-61
2022/07/20 06:19:13;;;;;;;14.63;7.13;;;19.20;99.90;;;;;;4954213;29;20656;-62
2022/07/20 06:21:39;;;;;;;12.80;7.35;;;19.20;99.90;;;;;;4954274;29;20177;-61
2022/07/20 06:24:05;;;;;;;11.55;6.55;;;19.30;99.90;;;;;;4954160;29;20185;-61
2022/07/20 06:26:31;;;;;;;18.10;6.35;;;19.30;99.90;;;;;;4954247;29;20168;-61
2022/07/20 06:28:57;;;;;;;19.70;6.78;;;19.30;99.90;;;;;;4953966;29;20222;-61
2022/07/20 06:31:23;;;;;;;16.85;6.72;;;19.40;99.90;;;;;;4954053;29;20530;-61
2022/07/20 06:33:48;;;;;;;16.70;7.20;;;19.40;99.90;;;;;;4954179;29;20585;-61
2022/07/20 06:36:16;;;;;;;15.13;6.88;;;19.40;99.90;;;;;;4953996;29;20704;-61
2022/07/20 06:38:42;;;;;;;24.98;6.75;;;19.40;99.90;;;;;;4953907;29;20648;-61
2022/07/20 06:41:08;;;;;;;14.65;7.03;;;19.40;99.90;;;;;;4953862;29;20188;-61
2022/07/20 06:43:34;;;;;;;17.55;6.70;;;19.40;99.90;;;;;;4953805;29;20317;-61
2022/07/20 06:45:59;;;;;;;15.35;7.38;;;19.40;99.90;;;;;;4954064;29;20184;-61
2022/07/20 06:48:25;;;;;;;12.75;6.38;;;19.50;99.90;;;;;;4953677;29;20671;-61
2022/07/20 06:50:51;;;;;;;11.80;6.15;;;19.50;99.90;;;;;;4953809;29;20169;-60
2022/07/20 06:53:17;;;;;;;16.05;6.65;;;19.50;99.90;;;;;;4953811;29;20181;-60
2022/07/20 06:55:43;;;;;;;17.33;6.43;;;19.50;99.90;;;;;;4953623;29;20222;-62
2022/07/20 06:58:09;;;;;;;12.65;6.32;;;19.50;99.90;;;;;;4953314;29;20185;-59
2022/07/20 07:00:35;;;;;;;16.13;6.38;;;19.50;99.90;;;;;;4953612;29;20280;-60
2022/07/20 07:03:01;;;;;;;15.90;6.40;;;19.50;99.90;;;;;;4953436;29;20656;-61
2022/07/20 07:05:26;;;;;;;18.60;6.07;;;19.50;99.90;;;;;;4953428;29;20652;-61
2022/07/20 07:07:52;;;;;;;16.48;6.43;;;19.60;99.90;;;;;;4953107;29;20270;-60
2022/07/20 07:10:18;;;;;;;14.43;6.82;;;19.70;99.90;;;;;;4953386;29;20192;-60
2022/07/20 07:12:44;;;;;;;15.80;6.93;;;19.70;99.90;;;;;;4952586;28;20691;-60
2022/07/20 07:15:10;;;;;;;14.68;7.15;;;19.60;99.90;;;;;;4953127;29;20172;-61
2022/07/20 07:17:36;;;;;;;17.45;6.55;;;19.60;99.90;;;;;;4952962;29;20220;-60
2022/07/20 07:20:03;;;;;;;16.75;6.90;;;19.70;99.90;;;;;;4953169;29;20176;-60
2022/07/20 07:22:30;;;;;;;18.13;6.85;;;20.00;99.90;;;;;;4953101;29;20532;-60
2022/07/20 07:24:56;;;;;;;19.52;7.13;;;20.00;99.90;;;;;;4953206;28;20260;-60
2022/07/20 07:27:22;;;;;;;15.98;6.60;;;20.10;99.90;;;;;;4952973;29;20180;-61
2022/07/20 07:29:48;;;;;;;12.23;6.72;;;20.10;99.90;;;;;;4953352;28;20379;-60
2022/07/20 07:32:14;;;;;;;14.88;6.78;;;20.20;99.90;;;;;;4953356;29;20240;-62
2022/07/20 07:34:40;;;;;;;16.63;7.13;;;20.10;99.90;;;;;;4953082;29;20176;-61
2022/07/20 07:37:06;;;;;;;18.60;7.03;;;20.10;99.90;;;;;;4951530;29;20267;-60
2022/07/20 07:39:32;;;;;;;14.50;7.15;;;20.20;99.90;;;;;;4952844;29;20180;-61
2022/07/20 07:41:58;;;;;;;13.18;6.57;;;20.30;99.90;;;;;;4952931;29;20252;-61
2022/07/20 07:44:23;;;;;;;13.75;7.18;;;20.50;99.90;;;;;;4953011;28;20172;-61
2022/07/20 07:46:49;;;;;;;20.48;6.95;;;20.60;99.90;;;;;;4952841;29;20235;-62
2022/07/20 07:49:15;;;;;;;14.63;6.88;;;20.80;99.90;;;;;;4952742;29;20563;-61
2022/07/20 07:51:41;;;;;;;20.27;7.88;;;21.10;99.90;;;;;;4952777;29;20175;-61
2022/07/20 07:54:07;;;;;;;20.15;6.82;;;21.00;99.90;;;;;;4952749;29;20177;-61
2022/07/20 07:56:33;;;;;;;15.68;6.65;;;21.00;99.90;;;;;;4952606;29;20744;-60
2022/07/20 07:58:59;;;;;;;21.33;7.82;;;21.20;99.90;;;;;;4952937;29;20176;-60
2022/07/20 08:01:25;;;;;;;14.20;6.75;;;21.30;99.90;;;;;;4952761;29;20674;-61
2022/07/20 08:03:51;;;;;;;18.50;7.63;;;21.30;99.90;;;;;;4952720;29;20179;-60
2022/07/20 08:06:16;;;;;;;14.88;6.35;;;21.20;99.90;;;;;;4952754;29;20187;-61
2022/07/20 08:08:42;;;;;;;14.50;6.75;;;21.10;99.90;;;;;;4952399;29;20671;-61
2022/07/20 08:11:09;;;;;;;14.02;7.47;;;21.20;99.90;;;;;;4952451;29;20203;-60
2022/07/20 08:13:34;;;;;;;20.35;7.57;;;21.20;99.90;;;;;;4952627;29;20184;-60
2022/07/20 08:16:00;;;;;;;15.48;7.60;;;21.30;99.90;;;;;;4952129;29;20180;-60
2022/07/20 08:18:26;;;;;;;17.77;7.15;;;21.30;99.90;;;;;;4952779;29;20275;-61
2022/07/20 08:20:52;;;;;;;13.90;6.65;;;21.60;99.90;;;;;;4952581;29;20177;-61
2022/07/20 08:23:18;;;;;;;18.50;6.60;;;21.70;99.90;;;;;;4953111;28;20168;-61
2022/07/20 08:25:44;;;;;;;18.13;7.22;;;21.80;99.90;;;;;;4956188;29;20180;-60
2022/07/20 08:28:16;;;;;;;19.58;8.40;;;21.80;99.90;;;;;;4955172;29;20286;-61
2022/07/20 08:30:44;;;;;;;17.92;7.90;;;21.90;99.90;;;;;;4956283;29;20177;-59
2022/07/20 08:33:10;;;;;;;16.05;8.10;;;22.00;99.90;;;;;;4956487;28;20165;-59
2022/07/20 08:35:37;;;;;;;17.35;7.78;;;22.00;99.90;;;;;;4956042;29;20188;-60
2022/07/20 08:38:04;;;;;;;24.33;7.70;;;22.00;99.90;;;;;;4956067;28;20260;-59
2022/07/20 08:40:30;;;;;;;18.15;7.53;;;22.30;99.90;;;;;;4956187;29;20196;-59
2022/07/20 08:42:56;;;;;;;14.45;7.72;;;22.40;99.90;;;;;;4955967;29;20208;-59
2022/07/20 08:45:23;;;;;;;15.10;7.65;;;22.10;99.90;;;;;;4955752;29;20296;-61
2022/07/20 08:47:50;;;;;;;12.57;6.75;;;22.10;99.90;;;;;;4955703;29;20707;-60
2022/07/20 08:50:28;;;;;;;20.75;7.90;;;22.10;99.90;;;;;;4954635;29;20261;-61
2022/07/20 08:52:56;;;;;;;16.00;8.20;;;22.50;99.90;;;;;;4955747;29;20168;-60
2022/07/20 08:55:23;;;;;;;18.85;7.80;;;22.60;99.90;;;;;;4955727;29;20267;-60
2022/07/20 08:57:49;;;;;;;12.07;7.35;;;23.00;99.90;;;;;;4955764;29;20254;-60
2022/07/20 09:00:16;;;;;;;16.13;7.30;;;23.50;99.90;;;;;;4955687;29;20173;-61
2022/07/20 09:03:01;;;;;;;20.42;8.05;;;24.00;99.90;;;;;;4955407;29;20195;-61
2022/07/20 09:05:28;;;;;;;15.40;7.63;;;24.30;99.90;;;;;;4955460;29;20185;-61
2022/07/20 09:07:56;;;;;;;10.15;7.22;;;24.50;99.90;;;;;;4955469;29;20228;-61
2022/07/20 09:10:26;;;;;;;15.93;7.65;;;24.60;99.90;;;;;;4955612;29;20184;-60
2022/07/20 09:13:04;;;;;;;17.52;8.75;;;24.70;99.90;;;;;;4955751;29;20165;-61
2022/07/20 09:15:40;;;;;;;16.73;7.90;;;24.60;99.90;;;;;;4955420;29;20199;-60
2022/07/20 09:18:25;;;;;;;17.63;7.93;;;24.30;99.90;;;;;;4955013;29;20220;-60
2022/07/20 09:20:57;;;;;;;13.40;7.72;;;24.30;99.90;;;;;;4955279;29;20180;-60
2022/07/20 09:23:30;;;;;;;20.02;8.05;;;24.50;99.90;;;;;;4953982;29;20235;-60
2022/07/20 09:26:25;;;;;;;18.95;9.38;;;24.10;99.90;;;;;;4955025;29;20597;-61
2022/07/20 09:28:54;;;;;;;16.88;8.95;;;23.60;99.90;;;;;;4953093;29;20239;-60
2022/07/20 09:31:30;;;;;;;18.95;8.90;;;23.40;99.90;;;;;;4954879;29;20487;-60
2022/07/20 09:34:01;;;;;;;18.17;8.88;;;23.20;99.90;;;;;;4954885;29;20235;-60
2022/07/20 09:36:32;;;;;;;18.38;9.32;;;23.10;99.90;;;;;;4954230;28;20185;-61
2022/07/20 09:39:09;;;;;;;16.23;9.55;;;23.10;99.90;;;;;;4954738;29;20203;-61
2022/07/20 09:41:36;;;;;;;14.90;9.20;;;23.00;99.90;;;;;;4954578;29;20176;-60
2022/07/20 09:44:07;;;;;;;20.27;9.82;;;22.70;99.90;;;;;;4954872;29;20181;-61
2022/07/20 09:46:35;;;;;;;13.55;8.80;;;22.60;99.90;;;;;;4954818;29;20176;-59
2022/07/20 09:49:06;;;;;;;18.73;9.30;;;22.60;99.90;;;;;;4954510;29;20287;-59
2022/07/20 09:51:40;;;;;;;19.42;10.35;;;22.40;99.90;;;;;;4954432;28;20227;-60
2022/07/20 09:54:17;;;;;;;14.93;9.73;;;22.30;99.90;;;;;;4954551;29;20263;-59
2022/07/20 09:56:48;;;;;;;15.77;9.30;;;22.30;99.90;;;;;;4954674;28;20232;-60
2022/07/20 09:59:16;;;;;;;18.45;9.50;;;22.20;99.90;;;;;;4954505;29;20666;-59
2022/07/20 10:01:53;;;;;;;17.23;9.18;;;22.20;99.90;;;;;;4954567;28;20185;-60
2022/07/20 10:04:20;;;;;;;14.73;9.07;;;22.10;99.90;;;;;;4954669;29;20211;-60
2022/07/20 10:06:48;;;;;;;16.25;9.30;;;22.00;99.90;;;;;;4954329;29;20216;-59
2022/07/20 10:09:15;;;;;;;17.60;9.73;;;21.90;99.90;;;;;;4954471;29;20285;-60
2022/07/20 10:11:42;;;;;;;18.88;10.02;;;21.80;99.90;;;;;;4954447;29;20173;-60
2022/07/20 10:14:08;;;;;;;20.08;9.50;;;21.80;99.90;;;;;;4954310;29;20183;-59
2022/07/20 10:16:38;;;;;;;18.25;9.40;;;21.70;99.90;;;;;;4954142;28;20223;-60
2022/07/20 10:19:06;;;;;;;26.83;10.23;;;21.60;99.90;;;;;;4954157;29;20587;-59
2022/07/20 10:21:34;;;;;;;26.98;10.18;;;21.60;99.90;;;;;;4954467;28;20181;-61
2022/07/20 10:24:25;;;;;;;25.92;9.98;;;21.60;99.90;;;;;;4954093;29;20239;-60
2022/07/20 10:27:06;;;;;;;23.98;10.43;;;21.70;99.90;;;;;;4954069;29;20176;-61
2022/07/20 10:29:32;;;;;;;24.38;10.02;;;22.00;99.90;;;;;;4954039;29;20216;-61
2022/07/20 10:32:09;;;;;;;24.60;10.18;;;22.10;99.90;;;;;;4954043;29;20172;-61
2022/07/20 10:34:39;;;;;;;23.05;9.63;;;22.40;99.90;;;;;;4953916;29;20215;-60
2022/07/20 10:37:20;;;;;;;16.95;9.73;;;22.60;99.90;;;;;;4954240;29;20208;-60
2022/07/20 10:39:47;;;;;;;20.33;9.90;;;22.90;99.90;;;;;;4953884;29;20644;-60
2022/07/20 10:42:28;;;;;;;20.27;10.05;;;23.00;99.90;;;;;;4953738;29;20232;-61
2022/07/20 10:47:46;;;;;;;16.67;9.35;;;23.20;99.90;;;;;;4952609;28;20302;-61
2022/07/20 10:50:24;;;;;;;18.80;9.50;;;23.10;99.90;;;;;;4953607;29;20203;-60
2022/07/20 10:52:53;;;;;;;17.20;9.80;;;23.00;99.90;;;;;;4953799;29;20172;-61
2022/07/20 10:55:34;;;;;;;19.80;10.38;;;23.00;99.90;;;;;;4952245;29;20177;-60
2022/07/20 10:58:05;;;;;;;19.98;10.05;;;22.90;99.90;;;;;;4952266;28;20247;-60
2022/07/20 11:00:36;;;;;;;20.75;9.75;;;23.00;99.90;;;;;;4953501;28;20707;-61
2022/07/20 11:03:04;;;;;;;18.77;10.30;;;23.00;99.90;;;;;;4953542;29;20191;-60
2022/07/20 11:05:30;;;;;;;18.48;10.43;;;22.90;99.90;;;;;;4953362;29;20280;-61
2022/07/20 11:08:03;;;;;;;16.35;10.00;;;22.90;99.90;;;;;;4953271;29;20291;-60
2022/07/20 11:10:30;;;;;;;20.23;10.00;;;22.90;99.90;;;;;;4953487;29;20177;-61
2022/07/20 11:12:59;;;;;;;14.70;8.98;;;23.00;99.90;;;;;;4953356;28;20191;-60
2022/07/20 11:15:37;;;;;;;22.70;11.15;;;23.00;99.90;;;;;;4953335;28;20493;-60
2022/07/20 11:18:04;;;;;;;14.93;9.00;;;23.10;99.90;;;;;;4949089;29;20231;-61
2022/07/20 11:20:29;;;;;;;17.00;9.55;;;23.20;99.90;;;;;;4953343;29;20181;-60
2022/07/20 11:22:56;;;;;;;20.80;9.43;;;23.40;99.90;;;;;;4953207;29;20533;-61
2022/07/20 11:25:24;;;;;;;18.00;9.60;;;23.30;99.90;;;;;;4953125;29;20177;-60
2022/07/20 11:28:03;;;;;;;18.75;9.40;;;23.30;99.90;;;;;;4952921;29;20247;-61
2022/07/20 11:30:36;;;;;;;16.90;9.27;;;23.30;99.90;;;;;;4953012;29;20222;-61
2022/07/20 11:33:02;;;;;;;19.15;9.73;;;23.30;99.90;;;;;;4952926;29;20643;-61
2022/07/20 11:35:28;;;;;;;16.02;8.60;;;23.30;99.90;;;;;;4952972;29;20176;-61
2022/07/20 11:37:54;;;;;;;16.65;8.80;;;23.30;99.90;;;;;;4953009;29;20260;-61
2022/07/20 11:40:23;;;;;;;17.45;8.95;;;23.50;99.90;;;;;;4953159;29;20165;-61
2022/07/20 11:43:11;;;;;;;15.38;8.90;;;23.80;99.90;;;;;;4952937;29;20208;-60
2022/07/20 11:45:38;;;;;;;18.67;8.73;;;23.70;99.90;;;;;;4952876;29;20243;-60
2022/07/20 11:48:24;;;;;;;18.00;8.38;;;24.30;99.90;;;;;;4952766;29;20296;-61
2022/07/20 11:50:50;;;;;;;17.50;8.85;;;25.20;99.90;;;;;;4952748;29;20216;-61
2022/07/20 11:53:30;;;;;;;13.77;8.13;;;25.20;99.90;;;;;;4952648;29;20243;-61
2022/07/20 11:55:57;;;;;;;20.45;9.10;;;24.90;99.90;;;;;;4952854;29;20200;-61
2022/07/20 11:58:36;;;;;;;14.40;8.48;;;24.70;99.90;;;;;;4953181;28;20528;-62
2022/07/20 12:01:05;;;;;;;18.05;9.40;;;24.60;99.90;;;;;;4956747;29;20616;-61
2022/07/20 12:03:39;;;;;;;12.90;8.18;;;24.70;99.90;;;;;;4957031;28;20172;-61
2022/07/20 12:06:12;;;;;;;17.48;8.20;;;24.80;99.90;;;;;;4956629;29;20191;-61
2022/07/20 12:08:38;;;;;;;15.02;8.05;;;24.90;99.90;;;;;;4956370;29;20208;-61
2022/07/20 12:11:06;;;;;;;20.40;8.70;;;24.60;99.90;;;;;;4956494;29;20164;-61
2022/07/20 12:13:43;;;;;;;22.60;8.63;;;24.50;99.90;;;;;;4956548;29;20208;-61
2022/07/20 12:16:08;;;;;;;20.25;9.43;;;24.50;99.90;;;;;;4956573;28;20204;-61
2022/07/20 12:18:37;;;;;;;18.48;8.85;;;24.20;99.90;;;;;;4956284;29;20695;-61
2022/07/20 12:21:04;;;;;;;19.58;9.23;;;24.10;99.90;;;;;;4956426;29;20631;-61
2022/07/20 12:23:31;;;;;;;23.02;9.30;;;23.90;99.90;;;;;;4956331;28;20198;-61
2022/07/20 12:25:57;;;;;;;18.60;9.43;;;23.80;99.90;;;;;;4956474;28;20200;-60
2022/07/20 12:28:33;;;;;;;19.63;8.80;;;23.80;99.90;;;;;;4956161;29;20667;-63
2022/07/20 12:31:13;;;;;;;19.58;9.70;;;23.50;99.90;;;;;;4956077;29;20539;-60
2022/07/20 12:33:58;;;;;;;17.95;8.48;;;23.20;99.90;;;;;;4955153;28;20180;-60
2022/07/20 12:36:35;;;;;;;18.38;9.18;;;22.80;99.90;;;;;;4955893;28;20679;-61
2022/07/20 12:39:02;;;;;;;21.63;9.38;;;23.80;99.90;;;;;;4956183;28;20635;-61
2022/07/20 12:41:28;;;;;;;19.75;8.57;;;25.20;99.90;;;;;;4955924;28;20298;-61
2022/07/20 12:43:54;;;;;;;18.83;8.63;;;25.60;99.90;;;;;;4956124;28;20349;-60
2022/07/20 12:46:20;;;;;;;21.48;9.48;;;26.00;99.90;;;;;;4955878;28;20207;-60